Time;durP1;ratioP1;P1;durP2;ratioP2;P2;SDS_P1;SDS_P2;PMS_P1;PMS_P2;Temp;Humidity;BMP_temperature;BMP_pressure;BME280_temperature;BME280_humidity;BME280_pressure;Samples;Min_cycle;Max_cycle;Signal;HPM_P1;HPM_P2
2023/08/21 00:00:52;;;;;;;0.38;0.38;;;13.20;99.90;;;;;;5114399;27;20274;-71
2023/08/21 00:03:18;;;;;;;0.40;0.40;;;13.20;99.90;;;;;;5113708;28;20188;-71
2023/08/21 00:05:43;;;;;;;0.40;0.40;;;13.20;99.90;;;;;;5114598;28;20238;-70
2023/08/21 00:08:09;;;;;;;0.50;0.50;;;13.30;99.90;;;;;;5114434;28;20196;-72
2023/08/21 00:10:37;;;;;;;0.45;0.45;;;13.30;99.90;;;;;;5114105;27;20272;-74
2023/08/21 00:13:04;;;;;;;0.60;0.60;;;13.30;99.90;;;;;;5109365;28;20207;-72
2023/08/21 00:15:30;;;;;;;0.40;0.40;;;13.30;99.90;;;;;;5093781;28;20776;-73
2023/08/21 00:17:55;;;;;;;0.60;0.60;;;13.20;99.90;;;;;;5093679;28;20188;-73
2023/08/21 00:20:21;;;;;;;0.50;0.50;;;13.20;99.90;;;;;;5092886;28;20185;-74
2023/08/21 00:22:47;;;;;;;0.40;0.40;;;13.20;99.90;;;;;;5093543;28;20195;-72
2023/08/21 00:25:12;;;;;;;1.08;0.82;;;13.10;99.90;;;;;;5093237;28;20192;-73
2023/08/21 00:27:38;;;;;;;0.75;0.75;;;13.10;99.90;;;;;;5092936;28;20306;-73
2023/08/21 00:30:04;;;;;;;0.40;0.40;;;13.00;99.90;;;;;;5092873;28;20232;-72
2023/08/21 00:32:30;;;;;;;0.40;0.40;;;13.00;99.90;;;;;;5092983;28;20249;-72
2023/08/21 00:34:56;;;;;;;0.45;0.45;;;13.00;99.90;;;;;;5091578;28;20204;-73
2023/08/21 00:37:21;;;;;;;0.50;0.50;;;13.00;99.90;;;;;;5092099;28;20563;-74
2023/08/21 00:39:47;;;;;;;0.57;0.57;;;13.00;99.90;;;;;;5092764;28;20188;-73
2023/08/21 00:42:13;;;;;;;0.40;0.40;;;12.90;99.90;;;;;;5093101;28;20768;-73
2023/08/21 00:44:39;;;;;;;0.40;0.40;;;12.90;99.90;;;;;;5092803;28;20192;-73
2023/08/21 00:47:04;;;;;;;0.77;0.73;;;12.90;99.90;;;;;;5091633;28;20252;-73
2023/08/21 00:49:31;;;;;;;0.60;0.60;;;12.90;99.90;;;;;;5092862;28;20671;-73
2023/08/21 00:51:57;;;;;;;0.75;0.75;;;12.90;99.90;;;;;;5078808;28;20574;-72
2023/08/21 00:54:23;;;;;;;0.60;0.60;;;12.80;99.90;;;;;;5077244;28;20207;-73
2023/08/21 00:56:50;;;;;;;0.40;0.40;;;12.80;99.90;;;;;;5092407;28;20204;-73
2023/08/21 00:59:16;;;;;;;0.70;0.70;;;12.70;99.90;;;;;;5091356;28;20197;-74
2023/08/21 01:01:45;;;;;;;0.40;0.40;;;12.70;99.90;;;;;;5096074;22;20236;-71
2023/08/21 01:04:11;;;;;;;0.50;0.50;;;12.60;99.90;;;;;;5093437;28;20195;-72
2023/08/21 01:06:37;;;;;;;0.40;0.40;;;12.70;99.90;;;;;;5074820;28;20609;-72
2023/08/21 01:09:15;;;;;;;0.50;0.50;;;12.70;99.90;;;;;;5091737;28;20192;-73
2023/08/21 01:11:58;;;;;;;0.45;0.45;;;12.70;99.90;;;;;;5074630;28;20279;-73
2023/08/21 01:14:52;;;;;;;0.40;0.40;;;12.60;99.90;;;;;;5092921;28;20192;-74
2023/08/21 01:17:19;;;;;;;0.50;0.50;;;12.60;99.90;;;;;;5087223;28;20593;-73
2023/08/21 01:19:49;;;;;;;0.40;0.40;;;12.60;99.90;;;;;;5093195;28;20188;-73
2023/08/21 01:22:15;;;;;;;0.50;0.50;;;12.50;99.90;;;;;;5073715;28;20193;-73
2023/08/21 01:24:40;;;;;;;0.80;0.80;;;12.50;99.90;;;;;;5077865;28;20665;-73
2023/08/21 01:27:06;;;;;;;0.50;0.50;;;12.40;99.90;;;;;;5092624;28;20246;-74
2023/08/21 01:29:33;;;;;;;0.50;0.50;;;12.40;99.90;;;;;;5092413;28;20192;-73
2023/08/21 01:32:16;;;;;;;0.52;0.52;;;12.40;99.90;;;;;;5074524;28;20196;-73
2023/08/21 01:34:42;;;;;;;0.40;0.40;;;12.30;99.90;;;;;;5074702;28;20192;-73
2023/08/21 01:37:09;;;;;;;0.50;0.50;;;12.30;99.90;;;;;;5090677;28;20618;-73
2023/08/21 01:39:35;;;;;;;0.50;0.50;;;12.30;99.90;;;;;;5074362;28;20291;-71
2023/08/21 01:42:00;;;;;;;0.50;0.50;;;12.30;99.90;;;;;;5092717;28;20220;-72
2023/08/21 01:44:26;;;;;;;0.50;0.50;;;12.30;99.90;;;;;;5091331;28;20546;-73
2023/08/21 01:46:53;;;;;;;0.60;0.60;;;12.40;99.90;;;;;;5091658;28;20238;-72
2023/08/21 01:49:19;;;;;;;0.55;0.52;;;12.30;99.90;;;;;;5092609;28;20271;-72
2023/08/21 01:51:45;;;;;;;0.60;0.60;;;12.40;99.90;;;;;;5085925;28;20203;-72
2023/08/21 01:54:11;;;;;;;0.52;0.52;;;12.40;99.90;;;;;;5093436;28;20654;-71
2023/08/21 01:56:37;;;;;;;0.63;0.63;;;12.50;99.90;;;;;;5092835;28;20214;-71
2023/08/21 01:59:06;;;;;;;0.50;0.50;;;12.60;99.90;;;;;;5093337;28;20188;-71
2023/08/21 02:01:32;;;;;;;0.50;0.50;;;12.70;99.90;;;;;;5092298;28;20624;-72
2023/08/21 02:03:57;;;;;;;0.60;0.60;;;12.80;99.90;;;;;;5092742;28;20184;-72
2023/08/21 02:06:23;;;;;;;0.40;0.40;;;12.80;99.90;;;;;;5092691;28;20224;-72
2023/08/21 02:08:49;;;;;;;0.55;0.55;;;12.90;99.90;;;;;;5092648;28;20200;-72
2023/08/21 02:11:15;;;;;;;0.80;0.80;;;13.20;99.90;;;;;;5074751;28;20208;-71
2023/08/21 02:13:41;;;;;;;0.50;0.50;;;13.30;99.90;;;;;;5093041;28;20583;-72
2023/08/21 02:16:07;;;;;;;0.70;0.70;;;13.50;99.90;;;;;;5092621;28;20294;-73
2023/08/21 02:18:33;;;;;;;0.90;0.90;;;13.80;99.90;;;;;;5073853;28;20350;-73
2023/08/21 02:21:00;;;;;;;1.40;0.88;;;14.00;99.90;;;;;;5089858;28;20679;-73
2023/08/21 02:23:26;;;;;;;0.40;0.40;;;14.10;99.90;;;;;;5074750;28;20196;-74
2023/08/21 02:25:52;;;;;;;0.70;0.70;;;14.10;99.90;;;;;;5091937;28;20192;-73
2023/08/21 02:28:17;;;;;;;0.60;0.60;;;14.20;99.90;;;;;;5092889;28;20270;-74
2023/08/21 02:30:45;;;;;;;2.05;1.63;;;14.20;99.90;;;;;;5092562;28;20199;-74
2023/08/21 02:33:11;;;;;;;0.60;0.60;;;14.30;99.90;;;;;;5092714;28;20252;-74
2023/08/21 02:35:39;;;;;;;0.70;0.70;;;14.40;99.90;;;;;;5092122;28;20283;-74
2023/08/21 02:38:05;;;;;;;6.03;1.48;;;14.40;99.90;;;;;;5092127;28;20200;-74
2023/08/21 02:40:31;;;;;;;0.55;0.55;;;14.40;99.90;;;;;;5090630;28;20192;-74
2023/08/21 02:42:57;;;;;;;0.50;0.50;;;14.50;99.90;;;;;;5074906;28;20196;-74
2023/08/21 02:45:23;;;;;;;0.65;0.65;;;14.50;99.90;;;;;;5093003;28;20188;-74
2023/08/21 02:47:50;;;;;;;2.60;1.23;;;14.50;99.90;;;;;;5094148;28;20196;-74
2023/08/21 02:50:18;;;;;;;0.60;0.60;;;14.50;99.90;;;;;;5096484;28;20223;-74
2023/08/21 02:52:44;;;;;;;0.70;0.70;;;14.40;99.90;;;;;;5115712;28;20195;-74
2023/08/21 02:55:10;;;;;;;1.70;1.45;;;14.50;99.90;;;;;;5116907;28;20187;-75
2023/08/21 02:57:39;;;;;;;0.70;0.70;;;14.50;99.90;;;;;;5116880;28;20226;-75
2023/08/21 03:00:08;;;;;;;0.70;0.70;;;14.40;99.90;;;;;;5116460;28;20239;-75
2023/08/21 03:02:34;;;;;;;0.40;0.40;;;14.50;99.90;;;;;;5095120;28;20584;-75
2023/08/21 03:05:00;;;;;;;0.75;0.75;;;14.40;99.90;;;;;;5095941;28;20188;-75
2023/08/21 03:07:26;;;;;;;0.80;0.80;;;14.50;99.90;;;;;;5075895;28;20208;-74
2023/08/21 03:09:51;;;;;;;0.95;0.80;;;14.50;99.90;;;;;;5076160;28;20282;-75
2023/08/21 03:12:17;;;;;;;0.40;0.40;;;14.50;99.90;;;;;;5076097;28;20192;-75
2023/08/21 03:14:46;;;;;;;0.50;0.50;;;14.50;99.90;;;;;;5076188;28;20253;-74
2023/08/21 03:17:15;;;;;;;0.90;0.82;;;14.50;99.90;;;;;;5081690;28;20299;-74
2023/08/21 03:19:40;;;;;;;0.57;0.57;;;14.50;99.90;;;;;;5077976;28;20300;-75
2023/08/21 03:22:06;;;;;;;0.60;0.60;;;14.50;99.90;;;;;;5096014;28;20246;-74
2023/08/21 03:24:32;;;;;;;1.00;0.82;;;14.50;99.90;;;;;;5096056;28;20289;-73
2023/08/21 03:26:58;;;;;;;0.40;0.40;;;14.50;99.90;;;;;;5093233;28;20208;-73
2023/08/21 03:29:23;;;;;;;0.60;0.60;;;14.50;99.90;;;;;;5095175;28;20270;-74
2023/08/21 03:31:53;;;;;;;0.50;0.50;;;14.40;99.90;;;;;;5095105;28;20184;-74
2023/08/21 03:34:21;;;;;;;4.15;1.02;;;14.40;99.90;;;;;;5095129;28;20192;-75
2023/08/21 03:36:46;;;;;;;0.45;0.45;;;14.40;99.90;;;;;;5094893;28;20219;-74
2023/08/21 03:39:12;;;;;;;1.00;0.98;;;14.30;99.90;;;;;;5095094;28;20192;-74
2023/08/21 03:41:41;;;;;;;0.65;0.65;;;14.20;99.90;;;;;;5094732;28;20848;-74
2023/08/21 03:44:06;;;;;;;0.55;0.55;;;14.10;99.90;;;;;;5094850;28;20563;-74
2023/08/21 03:46:32;;;;;;;1.40;0.82;;;14.10;99.90;;;;;;5094660;28;20263;-74
2023/08/21 03:49:01;;;;;;;1.63;1.45;;;14.00;99.90;;;;;;5094781;28;20212;-74
2023/08/21 03:51:30;;;;;;;0.50;0.50;;;14.00;99.90;;;;;;5094431;28;20188;-74
2023/08/21 03:53:56;;;;;;;0.73;0.73;;;13.80;99.90;;;;;;5093409;28;20204;-74
2023/08/21 03:56:23;;;;;;;0.40;0.40;;;13.70;99.90;;;;;;5094407;28;20204;-74
2023/08/21 03:58:52;;;;;;;0.40;0.40;;;13.60;99.90;;;;;;5093838;28;20180;-74
2023/08/21 04:01:17;;;;;;;3.88;0.73;;;13.60;99.90;;;;;;5096488;28;20541;-74
2023/08/21 04:03:43;;;;;;;0.70;0.70;;;13.50;99.90;;;;;;5094577;28;20283;-74
2023/08/21 04:06:09;;;;;;;0.43;0.43;;;13.40;99.90;;;;;;5094592;28;20192;-74
2023/08/21 04:08:34;;;;;;;0.50;0.50;;;13.40;99.90;;;;;;5076170;28;20549;-75
2023/08/21 04:11:01;;;;;;;0.75;0.75;;;13.30;99.90;;;;;;5094342;28;20248;-75
2023/08/21 04:13:27;;;;;;;4.70;0.80;;;13.30;99.90;;;;;;5093887;28;20192;-75
2023/08/21 04:15:57;;;;;;;0.70;0.70;;;13.20;99.90;;;;;;5076156;28;20208;-74
2023/08/21 04:18:23;;;;;;;0.68;0.57;;;13.20;99.90;;;;;;5094043;28;20245;-75
2023/08/21 04:20:49;;;;;;;0.45;0.45;;;13.20;99.90;;;;;;5086910;28;20188;-74
2023/08/21 04:23:15;;;;;;;1.50;0.98;;;13.20;99.90;;;;;;5074263;28;20682;-75
2023/08/21 04:25:40;;;;;;;0.38;0.38;;;13.20;99.90;;;;;;5073804;28;20192;-74
2023/08/21 04:28:07;;;;;;;0.50;0.50;;;13.20;99.90;;;;;;5074011;28;20199;-74
2023/08/21 04:30:33;;;;;;;0.63;0.63;;;13.20;99.90;;;;;;5073719;28;20189;-74
2023/08/21 04:33:00;;;;;;;0.85;0.70;;;13.20;99.90;;;;;;5073899;28;20215;-72
2023/08/21 04:35:26;;;;;;;0.47;0.47;;;13.20;99.90;;;;;;5073674;28;20262;-75
2023/08/21 04:37:55;;;;;;;0.63;0.63;;;13.30;99.90;;;;;;5055892;28;20193;-75
2023/08/21 04:40:24;;;;;;;0.68;0.68;;;13.40;99.90;;;;;;5099919;28;20676;-73
2023/08/21 04:42:50;;;;;;;0.80;0.80;;;13.50;99.90;;;;;;5114208;28;20192;-74
2023/08/21 04:45:16;;;;;;;0.52;0.52;;;13.60;99.90;;;;;;5114232;28;20194;-75
2023/08/21 04:47:42;;;;;;;0.40;0.40;;;13.70;99.90;;;;;;5113962;28;20195;-74
2023/08/21 04:50:08;;;;;;;1.38;0.55;;;13.80;99.90;;;;;;5113887;28;20646;-74
2023/08/21 04:52:33;;;;;;;0.60;0.60;;;13.90;99.90;;;;;;5113778;28;20259;-75
2023/08/21 04:54:59;;;;;;;0.80;0.80;;;14.00;99.90;;;;;;5114001;28;20192;-75
2023/08/21 04:57:25;;;;;;;0.65;0.65;;;14.10;99.90;;;;;;5113541;28;20231;-74
2023/08/21 04:59:51;;;;;;;0.50;0.50;;;14.20;99.90;;;;;;5092712;28;20253;-73
2023/08/21 05:02:16;;;;;;;0.95;0.88;;;14.30;99.90;;;;;;5064150;28;20255;-74
2023/08/21 05:04:42;;;;;;;0.77;0.77;;;14.40;99.90;;;;;;5072761;28;20200;-74
2023/08/21 05:07:08;;;;;;;2.30;0.77;;;14.50;99.90;;;;;;5073100;28;20207;-74
2023/08/21 05:09:34;;;;;;;1.60;1.20;;;14.60;99.90;;;;;;5072691;28;20197;-74
2023/08/21 05:11:59;;;;;;;0.60;0.60;;;14.60;99.90;;;;;;5070658;28;20287;-74
2023/08/21 05:14:25;;;;;;;0.45;0.45;;;14.70;99.90;;;;;;5072568;28;20288;-75
2023/08/21 05:16:51;;;;;;;0.47;0.47;;;14.80;99.90;;;;;;5072829;28;20312;-75
2023/08/21 05:19:17;;;;;;;0.50;0.50;;;14.90;99.90;;;;;;5054863;28;20193;-75
2023/08/21 05:21:43;;;;;;;0.40;0.40;;;14.90;99.90;;;;;;5056701;28;20189;-75
2023/08/21 05:24:09;;;;;;;0.60;0.60;;;14.90;99.90;;;;;;5052806;28;20668;-75
2023/08/21 05:26:39;;;;;;;2.90;1.70;;;15.00;99.90;;;;;;5052595;28;20190;-75
2023/08/21 05:29:05;;;;;;;0.55;0.55;;;15.10;99.90;;;;;;5052769;28;20692;-75
2023/08/21 05:31:31;;;;;;;0.40;0.40;;;15.10;99.90;;;;;;5052530;28;20275;-75
2023/08/21 05:33:56;;;;;;;0.35;0.35;;;15.20;99.90;;;;;;5052470;28;20721;-75
2023/08/21 05:36:22;;;;;;;1.38;1.10;;;15.20;99.90;;;;;;5063402;28;20240;-75
2023/08/21 05:38:50;;;;;;;0.40;0.40;;;15.30;99.90;;;;;;5054571;28;20282;-75
2023/08/21 05:41:16;;;;;;;0.50;0.50;;;15.30;99.90;;;;;;5071310;28;20556;-74
2023/08/21 05:43:43;;;;;;;0.82;0.82;;;15.30;99.90;;;;;;5071177;28;20219;-74
2023/08/21 05:46:08;;;;;;;0.82;0.82;;;15.30;99.90;;;;;;5070954;28;20201;-73
2023/08/21 05:48:42;;;;;;;0.55;0.55;;;15.40;99.90;;;;;;5072327;28;20669;-73
2023/08/21 05:51:07;;;;;;;0.40;0.40;;;15.40;99.90;;;;;;5072575;28;20228;-73
2023/08/21 05:53:33;;;;;;;0.55;0.55;;;15.40;99.90;;;;;;5072267;28;20610;-73
2023/08/21 05:55:59;;;;;;;0.90;0.85;;;15.40;99.90;;;;;;5038393;28;20331;-73
2023/08/21 05:58:29;;;;;;;0.40;0.40;;;15.40;99.90;;;;;;5052268;28;20653;-75
2023/08/21 06:00:54;;;;;;;0.40;0.40;;;15.50;99.90;;;;;;5052579;28;20602;-75
2023/08/21 06:03:23;;;;;;;0.65;0.65;;;15.50;99.90;;;;;;5090934;28;20262;-74
2023/08/21 06:05:48;;;;;;;0.63;0.63;;;15.50;99.90;;;;;;5092667;28;20682;-74
2023/08/21 06:08:14;;;;;;;0.70;0.70;;;15.50;99.90;;;;;;5092368;28;20196;-74
2023/08/21 06:10:40;;;;;;;0.45;0.45;;;15.50;99.90;;;;;;5073656;28;20207;-72
2023/08/21 06:13:06;;;;;;;0.88;0.88;;;15.50;99.90;;;;;;5092142;28;20200;-73
2023/08/21 06:15:31;;;;;;;0.52;0.52;;;15.50;99.90;;;;;;5092160;28;20720;-73
2023/08/21 06:18:01;;;;;;;3.22;1.23;;;15.50;99.90;;;;;;5074098;28;20199;-74
2023/08/21 06:20:27;;;;;;;0.70;0.70;;;15.60;99.90;;;;;;5092115;28;20188;-72
2023/08/21 06:22:53;;;;;;;0.50;0.50;;;15.60;99.90;;;;;;5076073;28;20198;-73
2023/08/21 06:25:19;;;;;;;1.05;0.82;;;15.70;99.90;;;;;;5096316;28;20199;-74
2023/08/21 06:27:45;;;;;;;0.75;0.55;;;15.70;99.90;;;;;;5096451;28;20255;-73
2023/08/21 06:30:11;;;;;;;0.40;0.40;;;15.70;99.90;;;;;;5096338;28;20203;-74
2023/08/21 06:32:37;;;;;;;1.65;0.82;;;15.80;99.90;;;;;;5095881;28;20561;-74
2023/08/21 06:35:03;;;;;;;0.60;0.60;;;15.80;99.90;;;;;;5095079;28;20194;-75
2023/08/21 06:37:28;;;;;;;0.50;0.50;;;15.90;99.90;;;;;;5111755;28;20218;-73
2023/08/21 06:39:54;;;;;;;1.05;0.93;;;15.90;99.90;;;;;;5078015;28;20195;-75
2023/08/21 06:42:20;;;;;;;2.38;1.10;;;15.90;99.90;;;;;;5096272;28;20218;-75
2023/08/21 06:44:46;;;;;;;0.40;0.40;;;16.00;99.90;;;;;;5095086;28;20449;-75
2023/08/21 06:47:11;;;;;;;0.60;0.60;;;16.10;99.90;;;;;;5096214;28;20200;-75
2023/08/21 06:49:37;;;;;;;0.50;0.50;;;16.20;99.90;;;;;;5094170;28;20209;-74
2023/08/21 06:52:03;;;;;;;0.73;0.70;;;16.10;99.90;;;;;;5096008;28;20238;-74
2023/08/21 06:54:29;;;;;;;0.88;0.88;;;16.20;99.90;;;;;;5094342;28;20692;-74
2023/08/21 06:56:55;;;;;;;0.60;0.60;;;16.30;99.90;;;;;;5095652;28;20236;-73
2023/08/21 06:59:24;;;;;;;1.42;1.33;;;16.50;99.90;;;;;;5095588;28;20218;-73
2023/08/21 07:01:51;;;;;;;0.65;0.65;;;16.50;99.90;;;;;;5099991;28;20235;-73
2023/08/21 07:04:16;;;;;;;3.97;0.95;;;16.60;99.90;;;;;;5095741;28;20693;-73
2023/08/21 07:06:42;;;;;;;1.55;0.93;;;16.70;99.90;;;;;;5093946;28;20230;-74
2023/08/21 07:09:08;;;;;;;1.85;1.15;;;16.80;99.90;;;;;;5095773;28;20196;-73
2023/08/21 07:11:34;;;;;;;0.82;0.80;;;16.70;99.90;;;;;;5095300;28;20193;-74
2023/08/21 07:14:03;;;;;;;0.40;0.40;;;16.70;99.90;;;;;;5095716;28;20197;-73
2023/08/21 07:16:29;;;;;;;0.20;0.20;;;16.80;99.90;;;;;;5095364;28;20204;-73
2023/08/21 07:18:54;;;;;;;3.72;0.73;;;16.80;99.90;;;;;;5095382;28;20187;-73
2023/08/21 07:21:20;;;;;;;0.50;0.50;;;16.80;99.90;;;;;;5073543;28;20201;-73
2023/08/21 07:23:49;;;;;;;0.40;0.40;;;16.90;99.90;;;;;;5075158;28;20199;-74
2023/08/21 07:26:15;;;;;;;0.40;0.40;;;17.00;99.90;;;;;;5092870;28;20211;-74
2023/08/21 07:28:40;;;;;;;0.40;0.40;;;17.20;99.90;;;;;;5094980;28;20196;-74
2023/08/21 07:31:09;;;;;;;0.90;0.85;;;17.30;99.90;;;;;;5095179;28;20202;-74
2023/08/21 07:33:35;;;;;;;0.50;0.50;;;17.40;99.90;;;;;;5094283;28;20188;-74
2023/08/21 07:36:03;;;;;;;0.43;0.43;;;17.50;99.90;;;;;;5094682;28;20572;-74
2023/08/21 07:38:29;;;;;;;1.50;0.63;;;17.60;99.90;;;;;;5095132;28;20195;-74
2023/08/21 07:41:11;;;;;;;2.30;1.00;;;17.80;99.90;;;;;;5095041;28;20557;-74
2023/08/21 07:43:39;;;;;;;1.58;0.75;;;17.90;99.90;;;;;;5076454;28;20274;-74
2023/08/21 07:46:07;;;;;;;0.50;0.50;;;18.10;99.90;;;;;;5095157;28;20184;-75
2023/08/21 07:48:33;;;;;;;0.50;0.35;;;18.20;99.90;;;;;;5094901;28;20246;-74
2023/08/21 07:50:59;;;;;;;4.78;1.40;;;18.30;99.90;;;;;;5094736;28;20204;-74
2023/08/21 07:53:26;;;;;;;1.08;0.88;;;18.50;99.90;;;;;;5094850;28;20582;-74
2023/08/21 07:55:52;;;;;;;0.73;0.73;;;18.50;99.90;;;;;;5076727;28;20261;-74
2023/08/21 07:58:19;;;;;;;1.77;0.75;;;18.60;99.90;;;;;;5094838;28;20199;-74
2023/08/21 08:00:45;;;;;;;0.40;0.40;;;18.50;99.90;;;;;;5094694;28;20663;-74
2023/08/21 08:03:14;;;;;;;3.30;0.98;;;18.30;99.90;;;;;;5094373;28;20252;-74
2023/08/21 08:05:46;;;;;;;0.57;0.57;;;18.10;99.90;;;;;;5094101;28;20238;-74
2023/08/21 08:08:11;;;;;;;0.30;0.30;;;18.00;99.90;;;;;;5094570;28;20192;-74
2023/08/21 08:10:39;;;;;;;0.80;0.80;;;18.10;99.90;;;;;;5076639;28;20252;-74
2023/08/21 08:13:04;;;;;;;0.32;0.32;;;18.10;99.90;;;;;;5095115;28;20223;-73
2023/08/21 08:15:30;;;;;;;0.20;0.20;;;18.10;99.90;;;;;;5094048;28;20543;-74
2023/08/21 08:17:57;;;;;;;0.30;0.30;;;18.20;99.90;;;;;;5076870;28;20223;-73
2023/08/21 08:20:23;;;;;;;0.40;0.40;;;18.30;99.90;;;;;;5094632;28;20658;-73
2023/08/21 08:22:49;;;;;;;0.30;0.30;;;18.20;99.90;;;;;;5094877;28;20264;-74
2023/08/21 08:25:15;;;;;;;0.30;0.30;;;18.20;99.90;;;;;;5094754;28;20192;-73
2023/08/21 08:27:41;;;;;;;0.68;0.50;;;18.30;99.90;;;;;;5094509;28;20196;-74
2023/08/21 08:30:08;;;;;;;1.38;0.82;;;18.40;99.90;;;;;;5094883;28;20176;-74
2023/08/21 08:32:44;;;;;;;0.88;0.85;;;18.50;99.90;;;;;;5094608;28;20267;-73
2023/08/21 08:35:12;;;;;;;0.40;0.40;;;18.40;99.90;;;;;;5094799;28;20212;-73
2023/08/21 08:37:38;;;;;;;0.55;0.43;;;18.40;99.90;;;;;;5094493;28;20266;-74
2023/08/21 08:40:04;;;;;;;0.68;0.55;;;18.50;99.90;;;;;;5094645;28;20635;-74
2023/08/21 08:42:30;;;;;;;0.70;0.70;;;18.50;99.90;;;;;;5094074;28;20389;-74
2023/08/21 08:45:00;;;;;;;0.55;0.52;;;18.50;99.90;;;;;;5094288;28;20249;-74
2023/08/21 08:47:28;;;;;;;2.50;0.73;;;18.60;99.90;;;;;;5094450;28;20246;-74
2023/08/21 08:49:55;;;;;;;0.20;0.20;;;18.80;99.90;;;;;;5094826;28;20638;-74
2023/08/21 08:52:23;;;;;;;0.55;0.55;;;18.90;99.90;;;;;;5094245;28;20192;-74
2023/08/21 08:54:49;;;;;;;0.55;0.55;;;19.30;99.90;;;;;;5094272;28;20511;-74
2023/08/21 08:57:15;;;;;;;0.68;0.68;;;19.40;99.90;;;;;;5092773;28;20215;-74
2023/08/21 08:59:40;;;;;;;0.68;0.68;;;19.30;99.90;;;;;;5093437;28;20279;-74
2023/08/21 09:02:07;;;;;;;0.38;0.38;;;19.40;99.90;;;;;;5093709;28;20232;-74
2023/08/21 09:04:35;;;;;;;0.77;0.77;;;19.70;99.90;;;;;;5094048;28;20733;-74
2023/08/21 09:07:11;;;;;;;0.30;0.30;;;20.10;99.90;;;;;;5094100;28;20191;-75
2023/08/21 09:09:40;;;;;;;0.40;0.40;;;20.70;99.90;;;;;;5093643;28;20287;-75
2023/08/21 09:12:14;;;;;;;0.32;0.32;;;20.90;99.90;;;;;;5075490;28;20662;-75
2023/08/21 09:14:40;;;;;;;0.20;0.20;;;21.00;99.90;;;;;;5094006;28;20196;-75
2023/08/21 09:17:07;;;;;;;0.20;0.20;;;21.10;99.90;;;;;;5093046;28;20309;-73
2023/08/21 09:19:33;;;;;;;0.88;0.88;;;21.30;99.90;;;;;;5093724;28;20185;-73
2023/08/21 09:22:12;;;;;;;0.38;0.38;;;21.40;99.90;;;;;;5092532;28;20651;-74
2023/08/21 09:25:10;;;;;;;0.20;0.20;;;21.40;99.90;;;;;;5093354;28;20192;-74
2023/08/21 09:27:51;;;;;;;0.30;0.30;;;21.40;99.90;;;;;;5093605;28;20285;-74
2023/08/21 09:30:16;;;;;;;0.38;0.32;;;22.00;99.90;;;;;;5092183;28;20199;-74
2023/08/21 09:32:56;;;;;;;1.67;1.13;;;22.40;99.90;;;;;;5093725;28;20237;-73
2023/08/21 09:35:26;;;;;;;0.30;0.30;;;22.20;99.90;;;;;;5093433;28;20196;-73
2023/08/21 09:37:55;;;;;;;1.25;0.43;;;21.90;99.90;;;;;;5093446;28;20187;-73
2023/08/21 09:40:24;;;;;;;6.72;1.17;;;21.50;99.90;;;;;;5075365;28;20204;-73
2023/08/21 09:42:54;;;;;;;0.20;0.20;;;21.40;99.90;;;;;;5093424;28;20196;-74
2023/08/21 09:45:24;;;;;;;0.47;0.47;;;21.50;99.90;;;;;;5093302;28;20567;-73
2023/08/21 09:47:51;;;;;;;1.02;0.50;;;21.80;99.90;;;;;;5093414;28;20192;-73
2023/08/21 09:50:18;;;;;;;0.45;0.45;;;21.90;99.90;;;;;;5093023;28;20195;-74
2023/08/21 09:52:44;;;;;;;0.45;0.45;;;21.90;99.90;;;;;;5093652;28;20242;-74
2023/08/21 09:55:17;;;;;;;2.85;0.95;;;21.50;99.90;;;;;;5091897;28;20208;-74
2023/08/21 09:57:44;;;;;;;0.30;0.30;;;21.30;99.90;;;;;;5092673;28;20285;-74
2023/08/21 10:00:20;;;;;;;0.52;0.52;;;21.50;99.90;;;;;;5074909;28;20707;-74
2023/08/21 10:03:03;;;;;;;0.20;0.20;;;21.40;99.90;;;;;;5093781;28;20224;-74
2023/08/21 10:05:32;;;;;;;0.20;0.20;;;21.40;99.90;;;;;;5092826;28;20612;-74
2023/08/21 10:08:02;;;;;;;0.77;0.68;;;21.70;99.90;;;;;;5093020;28;20188;-74
2023/08/21 10:10:33;;;;;;;0.20;0.20;;;21.90;99.90;;;;;;5074813;28;20192;-74
2023/08/21 10:13:00;;;;;;;6.13;0.55;;;21.80;99.90;;;;;;5092841;28;20215;-74
2023/08/21 10:15:29;;;;;;;1.25;0.80;;;22.00;99.90;;;;;;5074990;28;20196;-75
2023/08/21 10:17:54;;;;;;;0.20;0.20;;;22.50;99.90;;;;;;5092212;28;20296;-74
2023/08/21 10:20:23;;;;;;;0.28;0.28;;;23.20;99.90;;;;;;5092749;28;20665;-75
2023/08/21 10:22:54;;;;;;;5.15;0.30;;;23.40;99.90;;;;;;5074973;28;20187;-75
2023/08/21 10:25:26;;;;;;;0.20;0.20;;;23.20;99.90;;;;;;5075006;28;20227;-75
2023/08/21 10:27:59;;;;;;;0.73;0.40;;;23.10;99.90;;;;;;5075029;28;20200;-75
2023/08/21 10:30:28;;;;;;;0.75;0.65;;;22.90;99.90;;;;;;5093054;28;20195;-74
2023/08/21 10:32:56;;;;;;;0.52;0.47;;;22.60;99.90;;;;;;5074963;28;20297;-75
2023/08/21 10:35:23;;;;;;;5.47;0.75;;;22.20;99.90;;;;;;5072320;28;20197;-75
2023/08/21 10:38:17;;;;;;;0.28;0.28;;;22.10;99.90;;;;;;5054704;28;20199;-75
2023/08/21 10:41:08;;;;;;;1.65;0.63;;;22.10;99.90;;;;;;5054601;28;20674;-75
2023/08/21 10:43:45;;;;;;;0.63;0.60;;;22.20;99.90;;;;;;5072512;28;20245;-75
2023/08/21 10:46:11;;;;;;;0.30;0.30;;;22.70;99.90;;;;;;5072858;28;20257;-75
2023/08/21 10:48:38;;;;;;;12.50;0.57;;;23.30;99.90;;;;;;5089725;28;20234;-74
2023/08/21 10:51:05;;;;;;;4.57;0.40;;;23.10;99.90;;;;;;5092546;28;20279;-75
2023/08/21 10:53:33;;;;;;;0.90;0.50;;;24.00;99.90;;;;;;5092564;28;20686;-75
2023/08/21 10:56:03;;;;;;;0.57;0.40;;;24.90;99.90;;;;;;5074378;28;20706;-75
2023/08/21 10:58:34;;;;;;;0.20;0.20;;;25.50;99.90;;;;;;5092637;28;20193;-75
2023/08/21 11:01:00;;;;;;;0.40;0.40;;;25.30;99.90;;;;;;5092441;28;20199;-75
2023/08/21 11:03:26;;;;;;;0.88;0.60;;;25.60;99.90;;;;;;5072189;28;20200;-75
2023/08/21 11:06:06;;;;;;;0.10;0.10;;;25.10;99.90;;;;;;5071266;28;20250;-75
2023/08/21 11:08:34;;;;;;;0.20;0.20;;;24.50;99.90;;;;;;5073281;28;20285;-75
2023/08/21 11:11:01;;;;;;;0.20;0.20;;;24.10;99.90;;;;;;5076007;28;20215;-75
2023/08/21 11:13:27;;;;;;;0.20;0.20;;;23.80;99.90;;;;;;5075444;28;20223;-75
2023/08/21 11:16:04;;;;;;;0.40;0.35;;;23.40;99.90;;;;;;5074487;28;20671;-75
2023/08/21 11:18:33;;;;;;;0.45;0.35;;;23.50;99.90;;;;;;5075372;28;20196;-74
2023/08/21 11:21:08;;;;;;;6.22;0.60;;;24.30;99.90;;;;;;5065710;28;20202;-75
2023/08/21 11:23:36;;;;;;;0.20;0.20;;;25.10;99.90;;;;;;5055174;28;20195;-75
2023/08/21 11:26:06;;;;;;;0.30;0.30;;;25.50;99.90;;;;;;5037369;28;20638;-75
2023/08/21 11:28:32;;;;;;;0.15;0.15;;;25.90;99.90;;;;;;5037896;28;20610;-75
2023/08/21 11:30:58;;;;;;;0.28;0.28;;;25.80;99.90;;;;;;5055357;28;20197;-75
2023/08/21 11:33:26;;;;;;;4.05;0.25;;;25.70;99.90;;;;;;5073301;28;20243;-75
2023/08/21 11:35:53;;;;;;;0.38;0.38;;;26.00;99.90;;;;;;5076004;28;20679;-74
2023/08/21 11:38:23;;;;;;;0.35;0.20;;;26.10;99.90;;;;;;5075748;28;20223;-74
2023/08/21 11:41:02;;;;;;;0.10;0.10;;;26.10;99.90;;;;;;5057650;28;20283;-74
2023/08/21 11:43:39;;;;;;;0.38;0.30;;;26.40;99.90;;;;;;5075435;28;20659;-74
2023/08/21 11:46:06;;;;;;;0.10;0.10;;;26.60;99.90;;;;;;5075534;28;20235;-74
2023/08/21 11:48:32;;;;;;;1.27;0.55;;;26.00;99.90;;;;;;5074995;28;20196;-74
2023/08/21 11:50:58;;;;;;;0.20;0.20;;;25.70;99.90;;;;;;5075288;28;20608;-75
2023/08/21 11:53:38;;;;;;;0.52;0.32;;;25.30;99.90;;;;;;5075190;28;20185;-74
2023/08/21 11:56:15;;;;;;;0.45;0.45;;;24.80;99.90;;;;;;5075134;28;20205;-74
2023/08/21 11:58:43;;;;;;;0.20;0.20;;;24.50;99.90;;;;;;5057072;28;20200;-74
2023/08/21 12:01:09;;;;;;;1.10;0.73;;;24.60;99.90;;;;;;5076057;28;20201;-73
2023/08/21 12:03:39;;;;;;;0.28;0.28;;;24.60;99.90;;;;;;5095362;28;20184;-74
2023/08/21 12:06:10;;;;;;;0.38;0.38;;;25.00;99.90;;;;;;5076534;28;20224;-74
2023/08/21 12:08:36;;;;;;;1.10;0.43;;;25.50;99.90;;;;;;5094983;28;20196;-74
2023/08/21 12:11:07;;;;;;;0.25;0.25;;;25.90;99.90;;;;;;5075553;28;20250;-74
2023/08/21 12:13:33;;;;;;;0.10;0.10;;;26.00;99.90;;;;;;5074701;28;20196;-74
2023/08/21 12:15:59;;;;;;;3.55;0.13;;;26.30;99.90;;;;;;5056950;28;20216;-73
2023/08/21 12:18:24;;;;;;;0.73;0.60;;;26.20;99.90;;;;;;5074576;28;20215;-73
2023/08/21 12:20:51;;;;;;;1.90;0.13;;;26.10;99.90;;;;;;5064201;28;20214;-74
2023/08/21 12:23:16;;;;;;;0.10;0.10;;;26.00;99.90;;;;;;5067362;28;20792;-73
2023/08/21 12:25:45;;;;;;;1.20;0.55;;;26.30;99.90;;;;;;5069861;28;20675;-74
2023/08/21 12:28:11;;;;;;;0.10;0.10;;;26.40;99.90;;;;;;5063062;28;20211;-73
2023/08/21 12:30:40;;;;;;;0.28;0.25;;;26.10;99.90;;;;;;5050548;28;20834;-73
2023/08/21 12:33:08;;;;;;;0.13;0.13;;;25.80;99.90;;;;;;5068326;28;20204;-73
2023/08/21 12:35:34;;;;;;;0.13;0.13;;;25.80;99.90;;;;;;5072785;28;20221;-74
2023/08/21 12:38:05;;;;;;;0.20;0.20;;;25.60;99.90;;;;;;5074236;28;20227;-74
2023/08/21 12:40:32;;;;;;;0.20;0.20;;;25.70;99.90;;;;;;5060506;28;20188;-75
2023/08/21 12:43:00;;;;;;;0.20;0.20;;;26.00;99.90;;;;;;5056298;28;20193;-74
2023/08/21 12:45:41;;;;;;;0.40;0.25;;;25.70;99.90;;;;;;5074288;28;20268;-75
2023/08/21 12:48:08;;;;;;;0.30;0.30;;;25.70;99.90;;;;;;5055175;28;20197;-73
2023/08/21 12:50:36;;;;;;;0.28;0.28;;;25.40;99.90;;;;;;5073995;28;20217;-74